Time;durP1;ratioP1;P1;durP2;ratioP2;P2;SDS_P1;SDS_P2;PMS_P1;PMS_P2;Temp;Humidity;BMP_temperature;BMP_pressure;BME280_temperature;BME280_humidity;BME280_pressure;Samples;Min_cycle;Max_cycle;Signal;HPM_P1;HPM_P2
2023/08/25 00:00:00;;;;;;;21.58;19.38;;;19.70;92.60;;;;;;4961366;28;20043;-78
2023/08/25 00:02:26;;;;;;;21.35;19.15;;;19.70;92.50;;;;;;4947454;28;20047;-78
2023/08/25 00:04:52;;;;;;;17.30;15.55;;;19.70;92.50;;;;;;4950341;28;20469;-78
2023/08/25 00:07:18;;;;;;;18.10;16.30;;;19.70;92.50;;;;;;4939610;28;20076;-78
2023/08/25 00:09:45;;;;;;;16.98;15.27;;;19.60;92.50;;;;;;4964271;28;20046;-78
2023/08/25 00:12:11;;;;;;;19.60;17.60;;;19.60;92.50;;;;;;4971797;28;20039;-78
2023/08/25 00:14:37;;;;;;;18.88;16.98;;;19.60;92.60;;;;;;4969031;28;20130;-78
2023/08/25 00:17:03;;;;;;;19.77;17.77;;;19.60;92.50;;;;;;4964212;28;20043;-78
2023/08/25 00:19:29;;;;;;;27.95;16.38;;;19.60;92.40;;;;;;4959371;28;20126;-79
2023/08/25 00:21:55;;;;;;;17.75;15.85;;;19.60;92.40;;;;;;4949721;28;20035;-78
2023/08/25 00:24:21;;;;;;;19.83;15.32;;;19.50;92.40;;;;;;4942783;28;20035;-79
2023/08/25 00:26:46;;;;;;;14.23;12.82;;;19.50;92.50;;;;;;4941050;28;20074;-78
2023/08/25 00:29:12;;;;;;;12.95;11.75;;;19.40;92.50;;;;;;4964674;28;20039;-78
2023/08/25 00:31:38;;;;;;;13.43;12.02;;;19.40;92.50;;;;;;4960514;28;20031;-78
2023/08/25 00:34:04;;;;;;;14.35;12.95;;;19.40;92.60;;;;;;4960998;28;20389;-79
2023/08/25 00:36:30;;;;;;;13.05;11.75;;;19.40;92.60;;;;;;4962465;28;20059;-79
2023/08/25 00:38:56;;;;;;;12.63;11.32;;;19.40;92.60;;;;;;4969961;28;20046;-78
2023/08/25 00:41:22;;;;;;;13.82;12.50;;;19.40;92.60;;;;;;4963741;28;20030;-78
2023/08/25 00:43:48;;;;;;;14.15;12.75;;;19.30;92.60;;;;;;4959049;28;20435;-79
2023/08/25 00:46:14;;;;;;;15.30;13.05;;;19.30;92.70;;;;;;4969195;28;20027;-78
2023/08/25 00:48:40;;;;;;;13.18;11.85;;;19.30;92.70;;;;;;5005388;28;20050;-78
2023/08/25 00:51:08;;;;;;;12.77;11.57;;;19.30;92.80;;;;;;4970404;28;20031;-79
2023/08/25 00:53:35;;;;;;;12.38;11.18;;;19.30;92.80;;;;;;4956740;28;20039;-79
2023/08/25 00:56:02;;;;;;;14.25;12.95;;;19.30;92.70;;;;;;4951062;29;20386;-79
2023/08/25 00:58:29;;;;;;;13.02;11.82;;;19.20;92.80;;;;;;4943096;28;20043;-78
2023/08/25 01:00:55;;;;;;;14.07;12.77;;;19.30;92.80;;;;;;4947735;29;20027;-77
2023/08/25 01:03:22;;;;;;;13.15;11.80;;;19.20;92.80;;;;;;4945294;28;20039;-79
2023/08/25 01:05:48;;;;;;;14.43;12.93;;;19.20;92.80;;;;;;4949600;28;20049;-79
2023/08/25 01:08:19;;;;;;;13.80;12.40;;;19.20;92.90;;;;;;4952649;28;20057;-79
2023/08/25 01:11:19;;;;;;;14.55;13.02;;;19.20;92.90;;;;;;4948074;28;20043;-79
2023/08/25 01:14:12;;;;;;;12.55;11.35;;;19.20;92.90;;;;;;4964259;28;20342;-79
2023/08/25 01:16:50;;;;;;;14.50;12.05;;;19.10;92.90;;;;;;4985261;28;20537;-79
2023/08/25 01:19:39;;;;;;;13.05;11.77;;;19.20;92.90;;;;;;4987785;28;20041;-79
2023/08/25 01:22:13;;;;;;;12.32;11.20;;;19.20;92.80;;;;;;4972348;28;20126;-79
2023/08/25 01:24:40;;;;;;;12.07;10.90;;;19.20;92.80;;;;;;4943503;28;20118;-78
2023/08/25 01:27:07;;;;;;;13.75;12.30;;;19.20;92.80;;;;;;4951431;28;20044;-79
2023/08/25 01:29:40;;;;;;;12.73;11.52;;;19.30;92.70;;;;;;4967312;28;20047;-79
2023/08/25 01:32:06;;;;;;;12.82;11.52;;;19.30;92.70;;;;;;4961732;28;20039;-79
2023/08/25 01:34:33;;;;;;;13.18;11.98;;;19.30;92.60;;;;;;4967440;28;20043;-79
2023/08/25 01:37:25;;;;;;;14.40;13.10;;;19.30;92.60;;;;;;4966324;28;20065;-79
2023/08/25 01:39:54;;;;;;;13.55;12.25;;;19.30;92.50;;;;;;4946306;28;20035;-79
2023/08/25 01:42:24;;;;;;;13.57;12.38;;;19.30;92.40;;;;;;4948578;28;20035;-80
2023/08/25 01:44:51;;;;;;;13.77;12.48;;;19.30;92.50;;;;;;4963689;28;20042;-79
2023/08/25 01:47:19;;;;;;;13.88;12.45;;;19.40;92.60;;;;;;4966218;28;20062;-79
2023/08/25 01:49:45;;;;;;;15.45;14.00;;;19.40;92.60;;;;;;4941815;28;20096;-79
2023/08/25 01:52:12;;;;;;;13.82;12.52;;;19.40;92.40;;;;;;4953563;28;20031;-79
2023/08/25 01:54:38;;;;;;;12.43;11.20;;;19.30;92.50;;;;;;4945166;28;20036;-79
2023/08/25 01:57:04;;;;;;;12.43;11.25;;;19.40;92.50;;;;;;4959894;28;20058;-79
2023/08/25 01:59:29;;;;;;;14.77;13.48;;;19.40;92.60;;;;;;4961998;28;20078;-78
2023/08/25 02:01:55;;;;;;;14.10;12.80;;;19.40;92.50;;;;;;4964986;28;20031;-79
2023/08/25 02:04:21;;;;;;;15.23;13.90;;;19.50;92.50;;;;;;4955408;28;20122;-79
2023/08/25 02:06:46;;;;;;;14.48;13.15;;;19.50;92.50;;;;;;4965057;28;20039;-79
2023/08/25 02:09:14;;;;;;;14.80;13.38;;;19.50;92.50;;;;;;4957670;28;20059;-79
2023/08/25 02:11:39;;;;;;;14.32;12.98;;;19.50;92.50;;;;;;4947682;28;20061;-79
2023/08/25 02:14:05;;;;;;;15.65;14.25;;;19.50;92.50;;;;;;4961239;28;20070;-79
2023/08/25 02:16:31;;;;;;;16.42;14.35;;;19.60;92.40;;;;;;4971811;28;20032;-78
2023/08/25 02:18:57;;;;;;;15.52;14.13;;;19.50;92.50;;;;;;4964145;28;20501;-79
2023/08/25 02:21:22;;;;;;;16.52;14.93;;;19.60;92.40;;;;;;4959452;28;20157;-79
2023/08/25 02:23:49;;;;;;;16.73;15.00;;;19.60;92.50;;;;;;4961280;28;20118;-79
2023/08/25 02:26:15;;;;;;;15.38;13.95;;;19.60;92.50;;;;;;4966671;28;20409;-79
2023/08/25 02:28:40;;;;;;;16.63;15.13;;;19.60;92.50;;;;;;4950830;28;20227;-79
2023/08/25 02:31:06;;;;;;;19.00;17.30;;;19.60;92.50;;;;;;4951252;28;20023;-79
2023/08/25 02:33:32;;;;;;;17.42;15.80;;;19.60;92.50;;;;;;4951946;28;20055;-79
2023/08/25 02:35:58;;;;;;;18.23;16.35;;;19.60;92.50;;;;;;4948148;28;20023;-79
2023/08/25 02:38:24;;;;;;;18.08;16.33;;;19.60;92.50;;;;;;4963540;28;20283;-79
2023/08/25 02:40:49;;;;;;;19.10;17.20;;;19.70;92.40;;;;;;4951557;28;20485;-78
2023/08/25 02:43:15;;;;;;;19.05;17.17;;;19.70;92.30;;;;;;4953470;28;20109;-79
2023/08/25 02:45:41;;;;;;;18.83;16.92;;;19.60;92.40;;;;;;4963502;28;20027;-79
2023/08/25 02:48:07;;;;;;;19.48;17.48;;;19.60;92.50;;;;;;4953888;28;20470;-79
2023/08/25 02:50:33;;;;;;;20.48;18.40;;;19.60;92.50;;;;;;4948731;28;20172;-79
2023/08/25 02:52:59;;;;;;;21.85;19.70;;;19.60;92.60;;;;;;4942471;28;20044;-79
2023/08/25 02:55:25;;;;;;;23.10;20.70;;;19.60;92.70;;;;;;4969950;28;20077;-79
2023/08/25 02:57:51;;;;;;;25.02;22.52;;;19.60;92.80;;;;;;4948607;28;20389;-79
2023/08/25 03:00:20;;;;;;;25.85;23.45;;;19.60;92.80;;;;;;4970504;28;20114;-80
2023/08/25 03:02:47;;;;;;;21.30;19.20;;;19.60;92.80;;;;;;4966732;28;20070;-79
2023/08/25 03:05:13;;;;;;;23.77;21.38;;;19.60;92.90;;;;;;4963411;28;20019;-79
2023/08/25 03:07:39;;;;;;;24.38;21.98;;;19.60;93.00;;;;;;4966315;28;20039;-79
2023/08/25 03:10:05;;;;;;;24.95;22.48;;;19.70;93.10;;;;;;4967645;28;20041;-79
2023/08/25 03:12:31;;;;;;;26.40;23.95;;;19.70;93.10;;;;;;4967890;28;20042;-79
2023/08/25 03:14:57;;;;;;;25.63;23.15;;;19.70;93.10;;;;;;4965115;28;20043;-79
2023/08/25 03:17:23;;;;;;;25.83;23.27;;;19.70;93.10;;;;;;4966842;28;20316;-79
2023/08/25 03:19:49;;;;;;;26.17;23.38;;;19.70;93.10;;;;;;4995147;28;20499;-79
2023/08/25 03:22:14;;;;;;;26.40;23.85;;;19.70;93.20;;;;;;4964734;28;20449;-79
2023/08/25 03:24:40;;;;;;;25.90;23.33;;;19.70;93.20;;;;;;4967238;28;20030;-80
2023/08/25 03:27:06;;;;;;;26.15;23.55;;;19.70;93.30;;;;;;4974847;28;20103;-79
2023/08/25 03:29:31;;;;;;;24.23;21.92;;;19.70;93.30;;;;;;4963307;28;20493;-79
2023/08/25 03:31:58;;;;;;;25.48;22.88;;;19.70;93.30;;;;;;4966849;28;20045;-79
2023/08/25 03:34:24;;;;;;;28.88;25.88;;;19.80;93.30;;;;;;4969403;28;20043;-79
2023/08/25 03:36:50;;;;;;;27.45;24.75;;;19.80;93.30;;;;;;4964589;28;20432;-79
2023/08/25 03:39:15;;;;;;;26.30;23.80;;;19.80;93.30;;;;;;4961788;28;20417;-79
2023/08/25 03:41:41;;;;;;;27.48;24.83;;;19.80;93.20;;;;;;4961227;28;20060;-79
2023/08/25 03:44:07;;;;;;;29.13;26.15;;;19.80;93.20;;;;;;4962456;28;20488;-79
2023/08/25 03:46:33;;;;;;;31.55;28.25;;;19.80;93.20;;;;;;4971388;28;20073;-79
2023/08/25 03:48:59;;;;;;;35.78;31.75;;;19.80;93.20;;;;;;4966123;28;20960;-79
2023/08/25 03:51:24;;;;;;;35.30;31.05;;;19.80;93.20;;;;;;4959663;28;20047;-79
2023/08/25 03:53:50;;;;;;;36.35;31.35;;;19.80;93.20;;;;;;4966094;28;20030;-79
2023/08/25 03:56:16;;;;;;;36.67;31.67;;;19.80;93.20;;;;;;4967239;28;20055;-79
2023/08/25 03:58:41;;;;;;;38.00;29.83;;;19.80;93.20;;;;;;4964833;28;20046;-79
2023/08/25 04:01:08;;;;;;;40.05;33.45;;;19.80;93.30;;;;;;4971454;28;20453;-79
2023/08/25 04:03:33;;;;;;;45.78;37.97;;;19.80;93.30;;;;;;4965141;28;20039;-79
2023/08/25 04:05:59;;;;;;;38.78;33.38;;;19.80;93.20;;;;;;4967560;28;20034;-79
2023/08/25 04:08:25;;;;;;;40.25;34.38;;;19.80;93.30;;;;;;4970982;28;20120;-79
2023/08/25 04:10:52;;;;;;;44.95;36.45;;;19.80;93.20;;;;;;4965840;28;20031;-79
2023/08/25 04:13:18;;;;;;;42.95;36.03;;;19.80;93.20;;;;;;4958459;28;20502;-79
2023/08/25 04:15:44;;;;;;;45.53;37.30;;;19.80;93.30;;;;;;4971869;28;20027;-79
2023/08/25 04:18:09;;;;;;;47.03;39.17;;;19.80;93.20;;;;;;4952703;28;20034;-79
2023/08/25 04:20:35;;;;;;;43.58;34.40;;;19.80;93.20;;;;;;4960576;28;20065;-79
2023/08/25 04:23:01;;;;;;;46.13;36.97;;;19.80;93.30;;;;;;4946536;28;20039;-79
2023/08/25 04:25:29;;;;;;;48.88;39.83;;;19.80;93.30;;;;;;4947197;28;20024;-79
2023/08/25 04:27:58;;;;;;;49.58;40.33;;;19.80;93.30;;;;;;4945668;28;20130;-79
2023/08/25 04:30:24;;;;;;;45.53;37.55;;;19.80;93.30;;;;;;4946419;29;20516;-79
2023/08/25 04:32:50;;;;;;;44.38;35.15;;;19.80;93.30;;;;;;4952333;28;20047;-79
2023/08/25 04:35:16;;;;;;;40.92;35.00;;;19.90;93.40;;;;;;4960256;28;20034;-79
2023/08/25 04:37:47;;;;;;;48.72;39.25;;;19.90;93.40;;;;;;4962780;28;20031;-79
2023/08/25 04:40:15;;;;;;;43.10;35.13;;;19.80;93.30;;;;;;4970604;28;20049;-79
2023/08/25 04:42:41;;;;;;;43.60;36.10;;;19.80;93.40;;;;;;4960221;28;20059;-79
2023/08/25 04:45:12;;;;;;;50.47;39.95;;;19.80;93.50;;;;;;4953252;28;20034;-79
2023/08/25 04:47:38;;;;;;;48.25;38.97;;;19.80;93.50;;;;;;4951327;28;20108;-79
2023/08/25 04:50:07;;;;;;;43.05;35.90;;;19.90;93.60;;;;;;4966889;28;20071;-79
2023/08/25 04:52:34;;;;;;;45.38;36.35;;;19.90;93.60;;;;;;4957730;28;20032;-79
2023/08/25 04:55:00;;;;;;;45.60;39.15;;;19.90;93.60;;;;;;4943948;28;20424;-79
2023/08/25 04:57:26;;;;;;;47.70;40.80;;;19.90;93.60;;;;;;4951276;28;20061;-80
2023/08/25 04:59:52;;;;;;;46.05;39.90;;;19.90;93.50;;;;;;5005147;28;20383;-79
2023/08/25 05:02:17;;;;;;;47.30;40.97;;;19.90;93.40;;;;;;4956808;28;20047;-79
2023/08/25 05:04:43;;;;;;;48.15;40.15;;;20.00;93.30;;;;;;4968651;28;20400;-79
2023/08/25 05:07:09;;;;;;;48.63;40.47;;;19.90;93.30;;;;;;4970145;28;20411;-79
2023/08/25 05:09:35;;;;;;;40.00;35.67;;;19.90;93.30;;;;;;4971602;28;20043;-79
2023/08/25 05:12:00;;;;;;;42.58;37.40;;;19.90;93.30;;;;;;4968230;28;20054;-79
2023/08/25 05:14:26;;;;;;;44.22;36.80;;;19.90;93.40;;;;;;4966319;28;20079;-79
2023/08/25 05:16:52;;;;;;;51.45;42.00;;;19.90;93.40;;;;;;4961579;28;20050;-79
2023/08/25 05:19:17;;;;;;;47.13;40.90;;;19.90;93.50;;;;;;4979044;28;20055;-79
2023/08/25 05:21:43;;;;;;;51.00;42.63;;;19.90;93.40;;;;;;4967014;28;20027;-80
2023/08/25 05:24:20;;;;;;;46.15;40.40;;;19.90;93.40;;;;;;4960906;28;20396;-79
2023/08/25 05:26:53;;;;;;;51.90;43.10;;;19.90;93.40;;;;;;4955858;28;20057;-80
2023/08/25 05:29:26;;;;;;;49.83;40.90;;;19.80;93.50;;;;;;4961952;28;20520;-79
2023/08/25 05:31:53;;;;;;;53.75;44.30;;;19.80;93.50;;;;;;4966318;28;20058;-79
2023/08/25 05:34:18;;;;;;;55.95;45.97;;;19.80;93.60;;;;;;4962553;28;20031;-79
2023/08/25 05:36:44;;;;;;;55.60;45.10;;;19.80;93.60;;;;;;4972210;28;20088;-79
2023/08/25 05:39:11;;;;;;;56.58;45.30;;;19.80;93.50;;;;;;4951613;28;20048;-79
2023/08/25 05:41:37;;;;;;;61.05;47.33;;;19.80;93.50;;;;;;4944964;28;20069;-79
2023/08/25 05:44:03;;;;;;;61.00;47.28;;;19.80;93.50;;;;;;4954673;28;20031;-79
2023/08/25 05:46:30;;;;;;;62.75;47.75;;;19.80;93.50;;;;;;4949510;28;20062;-79
2023/08/25 05:48:58;;;;;;;67.88;50.55;;;19.80;93.60;;;;;;4953565;28;20111;-79
2023/08/25 05:51:25;;;;;;;60.08;46.90;;;19.70;93.60;;;;;;4959326;28;20032;-79
2023/08/25 05:53:51;;;;;;;60.08;47.28;;;19.80;93.70;;;;;;4962285;28;20041;-80
2023/08/25 05:56:16;;;;;;;59.00;47.25;;;19.80;93.70;;;;;;4953880;28;20069;-79
2023/08/25 05:58:42;;;;;;;58.47;46.40;;;19.80;93.70;;;;;;4949855;28;20063;-79
2023/08/25 06:01:08;;;;;;;60.50;45.88;;;19.80;93.70;;;;;;4947317;28;20031;-79
2023/08/25 06:03:34;;;;;;;63.17;44.15;;;19.90;93.70;;;;;;4957381;28;20039;-79
2023/08/25 06:06:00;;;;;;;54.53;41.20;;;19.80;93.60;;;;;;4967591;28;20038;-79
2023/08/25 06:08:26;;;;;;;54.63;40.28;;;19.80;93.60;;;;;;4952236;28;20178;-79
2023/08/25 06:10:52;;;;;;;49.42;39.30;;;19.70;93.20;;;;;;4945273;28;20118;-79
2023/08/25 06:13:18;;;;;;;56.78;42.47;;;19.70;93.30;;;;;;4943478;28;20169;-79
2023/08/25 06:15:44;;;;;;;54.28;39.65;;;19.80;93.20;;;;;;4940875;28;20401;-79
2023/08/25 06:18:10;;;;;;;53.75;42.28;;;19.80;93.20;;;;;;4955159;28;20051;-79
2023/08/25 06:20:38;;;;;;;48.75;37.72;;;19.80;93.00;;;;;;4952069;28;20043;-79
2023/08/25 06:23:04;;;;;;;56.47;42.10;;;19.80;92.90;;;;;;4945796;28;20439;-79
2023/08/25 06:25:30;;;;;;;50.05;39.05;;;19.90;92.90;;;;;;4952695;28;20121;-79
2023/08/25 06:27:56;;;;;;;53.10;40.22;;;19.90;92.70;;;;;;4953082;28;20051;-79
2023/08/25 06:30:22;;;;;;;54.45;40.15;;;20.00;92.70;;;;;;4950563;28;20035;-79
2023/08/25 06:32:47;;;;;;;53.78;40.38;;;19.90;92.60;;;;;;4944214;28;20520;-79
2023/08/25 06:35:13;;;;;;;60.20;41.33;;;19.90;92.60;;;;;;4968682;28;20130;-79
2023/08/25 06:37:39;;;;;;;56.33;42.17;;;19.80;92.50;;;;;;4991377;28;20042;-79
2023/08/25 06:40:07;;;;;;;62.83;44.08;;;19.80;92.40;;;;;;4944604;28;20130;-79
2023/08/25 06:42:34;;;;;;;61.90;45.20;;;19.70;92.30;;;;;;4959992;28;20027;-79
2023/08/25 06:45:00;;;;;;;65.60;47.35;;;19.70;92.50;;;;;;5054596;28;20024;-79
2023/08/25 06:47:27;;;;;;;72.30;48.90;;;19.80;92.40;;;;;;5013555;28;20040;-79
2023/08/25 06:49:54;;;;;;;61.08;44.30;;;19.70;92.30;;;;;;4945759;28;20388;-77
2023/08/25 06:52:20;;;;;;;66.88;47.25;;;19.80;92.40;;;;;;4951387;28;20046;-79
2023/08/25 06:54:46;;;;;;;66.07;47.20;;;19.80;92.20;;;;;;4966449;28;20049;-79
2023/08/25 06:57:12;;;;;;;70.60;47.70;;;19.80;92.30;;;;;;4953726;28;20450;-79
2023/08/25 06:59:38;;;;;;;63.47;46.53;;;19.80;92.10;;;;;;4992213;28;20150;-79
2023/08/25 07:02:04;;;;;;;65.68;45.50;;;19.80;92.10;;;;;;4967482;28;20034;-79
2023/08/25 07:04:30;;;;;;;63.65;43.90;;;19.80;92.20;;;;;;4949822;28;20054;-79
2023/08/25 07:06:55;;;;;;;64.93;45.97;;;19.90;92.20;;;;;;4950786;28;20039;-79
2023/08/25 07:09:21;;;;;;;61.30;42.35;;;19.90;92.00;;;;;;4955234;28;20577;-79
2023/08/25 07:11:47;;;;;;;60.97;43.50;;;20.00;92.00;;;;;;4958145;28;20103;-79
2023/08/25 07:14:13;;;;;;;58.80;42.75;;;20.10;92.00;;;;;;4944855;28;20406;-79
2023/08/25 07:16:39;;;;;;;62.35;44.92;;;20.20;91.80;;;;;;4945274;28;20057;-79
2023/08/25 07:19:05;;;;;;;60.92;44.13;;;20.10;91.40;;;;;;4965820;28;20024;-79
2023/08/25 07:21:30;;;;;;;60.92;43.90;;;20.10;91.30;;;;;;4943392;28;20036;-78
2023/08/25 07:23:56;;;;;;;66.65;44.05;;;20.10;91.30;;;;;;4956622;28;20035;-79
2023/08/25 07:26:22;;;;;;;59.25;42.78;;;20.20;91.30;;;;;;4954195;28;20401;-80
2023/08/25 07:28:48;;;;;;;56.15;41.80;;;20.40;91.10;;;;;;4962567;28;20092;-80
2023/08/25 07:31:14;;;;;;;54.72;41.72;;;20.40;90.70;;;;;;4965465;28;20416;-79
2023/08/25 07:33:41;;;;;;;64.07;45.03;;;20.50;90.50;;;;;;4965403;28;20047;-79
2023/08/25 07:36:07;;;;;;;60.83;41.15;;;20.60;90.70;;;;;;4955283;28;20118;-79
2023/08/25 07:38:32;;;;;;;54.63;39.00;;;20.80;90.40;;;;;;4954209;28;20122;-79
2023/08/25 07:40:58;;;;;;;51.75;37.72;;;21.00;89.50;;;;;;4948584;28;20102;-79
2023/08/25 07:43:24;;;;;;;51.60;37.42;;;21.10;88.70;;;;;;4955320;28;20030;-80
2023/08/25 07:45:50;;;;;;;48.92;36.13;;;21.30;88.30;;;;;;4946549;28;20035;-80
2023/08/25 07:48:15;;;;;;;52.63;33.78;;;21.60;87.80;;;;;;4962721;28;20039;-80
2023/08/25 07:50:41;;;;;;;46.90;33.42;;;21.50;86.60;;;;;;4961232;28;20026;-80
2023/08/25 07:53:07;;;;;;;42.55;30.85;;;21.60;86.80;;;;;;4960252;28;20035;-79
2023/08/25 07:55:34;;;;;;;40.55;30.33;;;21.60;86.80;;;;;;4953473;28;20061;-79
2023/08/25 07:58:00;;;;;;;39.15;30.85;;;21.60;86.20;;;;;;4953363;28;20061;-79
2023/08/25 08:00:27;;;;;;;42.20;29.90;;;21.60;86.40;;;;;;4947243;28;20043;-79
2023/08/25 08:02:53;;;;;;;38.92;29.02;;;21.70;86.90;;;;;;4959077;28;20516;-79
2023/08/25 08:05:18;;;;;;;37.25;28.23;;;21.60;86.30;;;;;;4968246;28;20031;-79
2023/08/25 08:07:45;;;;;;;44.28;31.35;;;21.60;85.80;;;;;;4966833;28;20039;-79
2023/08/25 08:10:12;;;;;;;38.42;27.85;;;21.60;85.90;;;;;;4967843;28;20131;-79
2023/08/25 08:12:39;;;;;;;37.00;27.05;;;21.60;86.10;;;;;;4984120;28;20076;-79
2023/08/25 08:15:06;;;;;;;40.42;26.90;;;21.60;85.80;;;;;;4939704;28;20027;-77
2023/08/25 08:17:32;;;;;;;40.88;27.77;;;21.60;85.70;;;;;;4944808;28;20047;-78
2023/08/25 08:19:58;;;;;;;36.72;26.02;;;21.70;85.80;;;;;;4962211;28;20036;-78
2023/08/25 08:22:24;;;;;;;34.33;25.38;;;21.60;85.60;;;;;;4962397;28;20088;-78
2023/08/25 08:24:50;;;;;;;30.90;24.48;;;21.80;85.10;;;;;;4939120;28;20035;-78
2023/08/25 08:27:17;;;;;;;29.90;22.98;;;21.90;84.60;;;;;;4944672;28;20035;-78
2023/08/25 08:29:44;;;;;;;31.98;23.33;;;22.00;85.00;;;;;;4964101;28;20490;-78
2023/08/25 08:32:10;;;;;;;31.67;21.73;;;22.10;84.00;;;;;;4965453;28;20058;-78
2023/08/25 08:34:36;;;;;;;29.38;22.25;;;22.00;83.00;;;;;;4948595;28;20470;-78
2023/08/25 08:37:05;;;;;;;31.58;22.65;;;22.10;83.40;;;;;;4951261;28;20039;-78
2023/08/25 08:39:34;;;;;;;27.23;20.63;;;22.20;82.70;;;;;;4947518;28;20101;-78
2023/08/25 08:42:01;;;;;;;25.02;20.17;;;22.40;82.40;;;;;;4959648;28;20038;-78
2023/08/25 08:44:33;;;;;;;29.05;21.27;;;22.60;81.70;;;;;;4969375;28;20519;-78
2023/08/25 08:47:00;;;;;;;26.13;19.88;;;22.70;81.40;;;;;;4972304;28;20093;-78
2023/08/25 08:49:26;;;;;;;28.83;21.17;;;22.70;81.40;;;;;;4966545;28;20126;-78
2023/08/25 08:51:54;;;;;;;28.63;21.50;;;22.80;81.40;;;;;;4969132;28;20477;-78
2023/08/25 08:54:20;;;;;;;28.55;21.60;;;22.60;80.90;;;;;;4971874;28;20026;-78
2023/08/25 08:56:46;;;;;;;28.70;20.90;;;22.50;81.20;;;;;;4975856;28;20278;-77
2023/08/25 08:59:12;;;;;;;27.77;21.58;;;22.40;81.30;;;;;;4969172;28;20043;-78
2023/08/25 09:01:38;;;;;;;28.02;22.40;;;22.10;81.90;;;;;;4967590;28;20400;-78
2023/08/25 09:04:07;;;;;;;27.80;20.60;;;22.20;82.30;;;;;;4968373;28;20035;-79
2023/08/25 09:06:38;;;;;;;28.63;21.83;;;22.30;82.60;;;;;;4969908;28;20030;-78
2023/08/25 09:09:05;;;;;;;31.00;23.65;;;22.20;81.90;;;;;;4973991;28;20096;-79
2023/08/25 09:11:34;;;;;;;28.95;23.13;;;22.00;82.60;;;;;;4970649;28;20039;-79
2023/08/25 09:14:04;;;;;;;28.02;21.17;;;22.00;83.20;;;;;;4969280;28;20043;-79
2023/08/25 09:16:35;;;;;;;27.73;21.45;;;22.00;83.00;;;;;;4965670;28;20072;-79
2023/08/25 09:19:04;;;;;;;26.88;21.63;;;22.10;83.10;;;;;;4966646;28;20443;-80
2023/08/25 09:21:30;;;;;;;26.58;20.27;;;22.10;82.00;;;;;;4948397;28;20506;-80
2023/08/25 09:24:00;;;;;;;28.98;22.35;;;22.10;82.60;;;;;;4961857;28;20043;-80
2023/08/25 09:26:36;;;;;;;30.02;23.83;;;22.10;82.60;;;;;;4970716;28;20497;-77
2023/08/25 09:29:02;;;;;;;32.83;24.45;;;22.00;82.30;;;;;;4978269;28;20066;-78
2023/08/25 09:31:29;;;;;;;33.03;23.50;;;21.90;83.00;;;;;;4974974;28;20470;-78
2023/08/25 09:34:06;;;;;;;27.63;23.70;;;22.10;83.20;;;;;;4945267;28;20031;-78
2023/08/25 09:36:32;;;;;;;26.98;23.98;;;22.30;82.90;;;;;;4948803;28;20134;-79
2023/08/25 09:38:59;;;;;;;28.30;24.05;;;22.40;82.40;;;;;;4965532;28;20096;-80
2023/08/25 09:41:26;;;;;;;31.20;24.10;;;22.40;81.70;;;;;;4960102;28;20030;-79
2023/08/25 09:43:59;;;;;;;34.15;24.98;;;22.20;81.50;;;;;;4950941;28;20141;-79
2023/08/25 09:46:32;;;;;;;29.58;24.52;;;22.10;81.90;;;;;;4949407;28;20428;-79
2023/08/25 09:49:02;;;;;;;30.80;24.80;;;22.00;82.40;;;;;;4942944;28;20043;-79
2023/08/25 09:51:36;;;;;;;30.83;23.90;;;22.10;82.40;;;;;;4945271;28;20277;-79
2023/08/25 09:54:09;;;;;;;;;;;22.00;82.90;;;;;;4958842;28;20131;-79
2023/08/25 09:56:36;;;;;;;31.20;24.02;;;22.00;83.40;;;;;;4967103;28;19937;-79
2023/08/25 09:59:05;;;;;;;29.02;23.95;;;22.00;83.00;;;;;;4965000;28;20047;-79
2023/08/25 10:01:33;;;;;;;30.30;23.67;;;22.00;82.90;;;;;;4966721;28;20122;-78
2023/08/25 10:03:58;;;;;;;33.40;26.33;;;21.90;83.20;;;;;;4968245;28;20108;-79
2023/08/25 10:06:24;;;;;;;30.42;25.48;;;21.90;83.40;;;;;;4971082;28;20026;-80
2023/08/25 10:08:50;;;;;;;36.70;28.35;;;21.90;83.30;;;;;;4969976;28;20031;-79
2023/08/25 10:11:19;;;;;;;32.42;26.40;;;21.90;83.40;;;;;;4968963;28;20465;-79
2023/08/25 10:13:49;;;;;;;37.45;27.95;;;21.90;83.60;;;;;;4967385;28;20437;-79
2023/08/25 10:16:16;;;;;;;34.90;28.58;;;21.90;83.70;;;;;;4984348;28;20043;-80
2023/08/25 10:18:45;;;;;;;36.05;29.15;;;21.90;84.00;;;;;;4946528;28;20050;-80
2023/08/25 10:21:14;;;;;;;36.20;30.60;;;21.90;84.30;;;;;;4942169;28;20421;-79
2023/08/25 10:23:42;;;;;;;39.65;31.48;;;21.70;84.10;;;;;;4948044;28;20100;-79
2023/08/25 10:26:08;;;;;;;36.42;29.50;;;21.60;84.50;;;;;;4940523;28;20085;-79
2023/08/25 10:28:35;;;;;;;38.20;30.38;;;21.60;84.60;;;;;;4952720;28;20040;-79
2023/08/25 10:31:01;;;;;;;44.28;31.65;;;21.60;85.00;;;;;;4945368;28;20082;-79
2023/08/25 10:33:27;;;;;;;43.00;33.10;;;21.60;84.90;;;;;;4962856;28;20043;-79
2023/08/25 10:35:55;;;;;;;49.97;35.85;;;21.60;84.50;;;;;;4955440;28;20035;-79
2023/08/25 10:38:33;;;;;;;49.10;37.42;;;21.70;84.60;;;;;;4946349;28;20046;-79
2023/08/25 10:41:11;;;;;;;45.28;36.60;;;21.70;84.80;;;;;;4949985;28;20030;-79
2023/08/25 10:43:37;;;;;;;55.67;40.00;;;21.80;84.50;;;;;;4952966;28;20047;-79
2023/08/25 10:46:07;;;;;;;52.25;41.65;;;21.80;84.40;;;;;;4964250;28;20065;-79
2023/08/25 10:48:33;;;;;;;43.17;36.75;;;21.80;84.40;;;;;;4961725;28;20042;-80
2023/08/25 10:51:09;;;;;;;48.00;39.25;;;21.80;84.50;;;;;;4973092;28;20047;-78
2023/08/25 10:53:50;;;;;;;56.75;42.75;;;21.80;84.50;;;;;;4981499;28;20488;-80
2023/08/25 10:56:19;;;;;;;54.25;42.03;;;21.60;84.60;;;;;;4965173;28;20027;-79
2023/08/25 10:59:11;;;;;;;55.97;42.08;;;21.60;84.80;;;;;;4967297;28;20047;-79
2023/08/25 11:01:37;;;;;;;52.40;42.33;;;21.60;85.10;;;;;;4992718;28;20031;-79
2023/08/25 11:04:11;;;;;;;54.78;43.28;;;21.60;85.00;;;;;;4957820;28;20112;-80
2023/08/25 11:07:03;;;;;;;56.33;46.92;;;21.60;84.90;;;;;;4982090;28;20027;-79
2023/08/25 11:09:32;;;;;;;63.58;49.85;;;21.70;85.00;;;;;;4957004;28;20138;-79
2023/08/25 11:12:03;;;;;;;64.50;50.33;;;21.70;84.80;;;;;;4969735;28;20504;-79
2023/08/25 11:14:30;;;;;;;66.82;50.25;;;21.80;84.80;;;;;;4971458;28;20125;-79
2023/08/25 11:17:01;;;;;;;67.20;51.13;;;21.90;84.50;;;;;;4978986;28;20072;-79
2023/08/25 11:19:28;;;;;;;65.63;51.90;;;22.00;84.50;;;;;;4976810;28;20051;-79
2023/08/25 11:22:01;;;;;;;59.78;49.35;;;22.00;84.00;;;;;;4980178;28;20045;-79
2023/08/25 11:24:29;;;;;;;63.85;50.85;;;22.10;84.20;;;;;;4965944;28;20153;-79
2023/08/25 11:27:01;;;;;;;62.58;49.50;;;22.10;83.90;;;;;;4967601;28;20058;-79
2023/08/25 11:29:27;;;;;;;69.15;51.53;;;22.20;83.90;;;;;;4973114;28;20113;-79
2023/08/25 11:31:53;;;;;;;67.28;50.38;;;22.30;83.60;;;;;;4966816;28;20457;-80
2023/08/25 11:34:21;;;;;;;63.03;49.55;;;22.40;83.10;;;;;;4964707;28;20439;-78
2023/08/25 11:36:47;;;;;;;61.28;49.05;;;22.40;83.20;;;;;;4971499;28;20054;-79
2023/08/25 11:39:19;;;;;;;60.72;50.63;;;22.60;82.90;;;;;;4966392;28;20401;-80
2023/08/25 11:41:46;;;;;;;60.58;48.75;;;22.50;82.80;;;;;;4965673;28;20030;-79
2023/08/25 11:44:12;;;;;;;62.10;49.25;;;22.50;82.10;;;;;;4945107;28;20158;-79
2023/08/25 11:46:38;;;;;;;57.88;46.60;;;22.50;82.20;;;;;;4945362;28;20081;-80
2023/08/25 11:49:06;;;;;;;54.45;44.58;;;22.50;82.10;;;;;;4976805;28;20441;-79
2023/08/25 11:51:35;;;;;;;59.15;48.00;;;22.60;82.00;;;;;;4938817;28;20074;-79
2023/08/25 11:54:01;;;;;;;51.50;44.22;;;22.60;82.50;;;;;;4955569;28;20043;-79
2023/08/25 11:56:27;;;;;;;57.35;47.08;;;22.50;82.50;;;;;;4949637;28;20027;-79
2023/08/25 11:58:53;;;;;;;55.55;45.55;;;22.50;82.50;;;;;;4946583;28;20054;-79
2023/08/25 12:01:19;;;;;;;48.00;42.60;;;22.30;82.20;;;;;;4947507;28;20035;-79
2023/08/25 12:03:46;;;;;;;49.40;39.80;;;22.30;83.10;;;;;;4944860;28;20039;-79
2023/08/25 12:06:13;;;;;;;49.22;43.97;;;22.20;83.00;;;;;;4948742;28;20038;-80
2023/08/25 12:08:40;;;;;;;49.08;41.85;;;22.20;82.60;;;;;;4952368;28;20367;-80
2023/08/25 12:11:08;;;;;;;46.92;41.92;;;22.10;82.70;;;;;;4972878;28;20055;-79
2023/08/25 12:13:36;;;;;;;49.03;41.88;;;22.10;83.00;;;;;;4964489;28;20032;-80
2023/08/25 12:16:04;;;;;;;47.67;42.15;;;22.10;83.40;;;;;;4985192;28;20021;-79
2023/08/25 12:18:37;;;;;;;47.13;41.17;;;22.00;84.00;;;;;;4956531;28;20119;-79
2023/08/25 12:21:05;;;;;;;50.95;42.95;;;21.90;84.10;;;;;;4945782;28;20551;-79
2023/08/25 12:23:41;;;;;;;52.35;44.13;;;21.80;84.50;;;;;;4958491;28;20126;-79
2023/08/25 12:26:13;;;;;;;52.63;44.17;;;21.80;85.20;;;;;;4966641;28;20027;-79
2023/08/25 12:28:40;;;;;;;52.13;42.47;;;21.60;85.30;;;;;;4954489;28;20051;-79